createdAt,value
2022-11-24T00:00:44.723Z,71.99
2022-11-24T00:05:46.347Z,71.91
2022-11-24T00:10:48.113Z,71.71
2022-11-24T00:15:49.762Z,71.85
2022-11-24T00:20:54.400Z,71.76
2022-11-24T00:25:56.108Z,71.52
2022-11-24T00:30:57.845Z,71.81
2022-11-24T00:36:00.735Z,71.64
2022-11-24T00:41:02.387Z,71.46
2022-11-24T00:46:04.478Z,71.16
2022-11-24T00:51:09.591Z,71.05
2022-11-24T00:56:12.264Z,70.78
2022-11-24T01:01:23.153Z,71.03
2022-11-24T01:06:26.380Z,70.90
2022-11-24T01:11:52.218Z,71.02
2022-11-24T01:16:54.675Z,71.19
2022-11-24T01:21:56.377Z,70.89
2022-11-24T01:26:58.083Z,70.57
2022-11-24T01:31:59.702Z,70.75
2022-11-24T01:37:01.337Z,70.50
2022-11-24T01:42:02.999Z,70.66
2022-11-24T01:47:30.830Z,70.74
2022-11-24T01:52:40.698Z,70.37
2022-11-24T01:57:51.785Z,70.47
2022-11-24T02:02:54.681Z,69.88
2022-11-24T02:08:00.921Z,69.77
2022-11-24T02:13:02.774Z,69.63
2022-11-24T02:18:04.468Z,69.50
2022-11-24T02:23:29.523Z,69.30
2022-11-24T02:28:32.015Z,69.60
2022-11-24T02:33:35.034Z,69.32
2022-11-24T02:38:36.802Z,69.31
2022-11-24T02:43:47.452Z,69.07
2022-11-24T02:48:49.223Z,69.20
2022-11-24T02:53:50.847Z,69.24
2022-11-24T02:58:52.505Z,69.18
2022-11-24T03:03:54.116Z,69.42
2022-11-24T03:08:55.736Z,69.20
2022-11-24T03:13:57.377Z,69.49
2022-11-24T03:18:59.082Z,69.49
2022-11-24T03:24:00.739Z,69.29
2022-11-24T03:29:02.372Z,69.15
2022-11-24T03:40:36.539Z,69.20
2022-11-24T03:45:45.848Z,69.18
2022-11-24T03:50:58.975Z,69.49
2022-11-24T03:56:02.040Z,69.27
2022-11-24T04:01:03.774Z,69.09
2022-11-24T04:06:05.438Z,69.04
2022-11-24T04:11:07.315Z,69.07
2022-11-24T04:16:09.351Z,69.31
2022-11-24T04:21:11.106Z,69.10
2022-11-24T04:26:13.658Z,68.94
2022-11-24T04:31:15.448Z,68.65
2022-11-24T04:36:17.156Z,68.85
2022-11-24T04:41:18.785Z,68.55
2022-11-24T04:46:20.436Z,68.74
2022-11-24T04:51:22.224Z,68.74
2022-11-24T04:56:23.914Z,68.44
2022-11-24T05:01:25.778Z,68.42
2022-11-24T05:06:27.524Z,68.29
2022-11-24T05:11:29.294Z,68.08
2022-11-24T05:16:30.958Z,67.83
2022-11-24T05:21:32.627Z,67.93
2022-11-24T05:26:35.589Z,67.96
2022-11-24T05:31:37.296Z,68.00
2022-11-24T05:36:54.190Z,68.27
2022-11-24T05:41:55.854Z,68.19
2022-11-24T05:46:57.553Z,68.44
2022-11-24T05:51:59.204Z,68.45
2022-11-24T05:57:00.825Z,68.66
2022-11-24T06:02:03.076Z,68.69
2022-11-24T06:07:07.108Z,68.69
2022-11-24T06:12:10.887Z,68.79
2022-11-24T06:17:12.945Z,68.67
2022-11-24T06:22:14.583Z,68.74
2022-11-24T06:27:16.325Z,68.96
2022-11-24T06:32:20.111Z,68.81
2022-11-24T06:37:22.806Z,68.53
2022-11-24T06:42:25.488Z,68.52
2022-11-24T06:47:28.662Z,68.50
2022-11-24T06:52:32.314Z,68.51
2022-11-24T06:57:35.762Z,68.42
2022-11-24T07:02:42.543Z,68.39
2022-11-24T07:07:47.261Z,68.37
2022-11-24T07:12:49.955Z,68.49
2022-11-24T07:17:51.572Z,68.45
2022-11-24T07:22:57.510Z,68.17
2022-11-24T07:28:00.071Z,68.20
2022-11-24T07:33:02.730Z,67.97
2022-11-24T07:38:04.360Z,68.16
2022-11-24T07:43:05.988Z,67.86
2022-11-24T07:48:07.615Z,67.38
2022-11-24T07:53:09.261Z,67.24
2022-11-24T07:58:10.942Z,67.14
2022-11-24T08:03:12.678Z,66.69
2022-11-24T08:08:14.324Z,66.23
2022-11-24T08:13:16.166Z,65.73
2022-11-24T08:18:17.783Z,65.82
2022-11-24T08:23:19.477Z,65.61
2022-11-24T08:28:21.439Z,65.15
2022-11-24T08:33:23.102Z,65.41
2022-11-24T08:38:24.710Z,65.67
2022-11-24T08:43:26.318Z,65.34
2022-11-24T08:48:28.490Z,64.99
2022-11-24T08:53:30.161Z,65.38
2022-11-24T08:58:32.263Z,64.85
2022-11-24T09:03:34.674Z,64.92
2022-11-24T09:08:37.230Z,65.43
2022-11-24T09:13:40.126Z,65.51
2022-11-24T09:18:42.014Z,65.57
2022-11-24T09:23:44.676Z,65.39
2022-11-24T09:28:47.202Z,65.02
2022-11-24T09:33:48.842Z,65.04
2022-11-24T09:38:53.129Z,64.29
2022-11-24T09:44:26.205Z,64.32
2022-11-24T09:49:58.855Z,64.14
2022-11-24T09:55:03.682Z,64.53
2022-11-24T10:00:13.309Z,63.94
2022-11-24T10:05:32.983Z,64.02
2022-11-24T10:10:52.029Z,64.04
2022-11-24T10:16:12.746Z,63.41
2022-11-24T10:21:44.292Z,63.58
2022-11-24T10:27:16.079Z,61.85
2022-11-24T10:32:36.857Z,63.33
2022-11-24T10:38:19.117Z,61.71
2022-11-24T10:43:21.854Z,61.90
2022-11-24T10:48:38.110Z,61.26
2022-11-24T10:53:46.137Z,59.26
2022-11-24T10:58:50.551Z,59.95
2022-11-24T11:10:22.111Z,57.41
2022-11-24T11:15:31.395Z,57.53
2022-11-24T11:20:39.577Z,56.60
2022-11-24T11:25:43.834Z,57.51
2022-11-24T11:31:22.117Z,56.77
2022-11-24T11:36:27.577Z,57.19
2022-11-24T11:41:37.136Z,56.34
2022-11-24T11:46:58.871Z,56.44
2022-11-24T11:52:23.156Z,56.82
2022-11-24T11:58:04.867Z,55.92
2022-11-24T12:03:32.574Z,56.73
2022-11-24T12:09:19.249Z,55.55
2022-11-24T12:14:44.823Z,55.40
2022-11-24T12:20:02.781Z,55.94
2022-11-24T12:25:39.828Z,56.41
2022-11-24T12:31:03.182Z,56.55
2022-11-24T12:36:31.390Z,56.04
2022-11-24T12:41:58.415Z,56.11
2022-11-24T12:47:26.830Z,57.08
2022-11-24T12:52:44.313Z,56.05
2022-11-24T12:58:09.305Z,56.53
2022-11-24T13:03:43.531Z,56.07
2022-11-24T13:08:48.653Z,56.60
2022-11-24T13:14:02.665Z,55.83
2022-11-24T13:19:15.136Z,56.09
2022-11-24T13:24:19.880Z,55.63
2022-11-24T13:29:28.329Z,54.83
2022-11-24T13:34:39.131Z,54.43
2022-11-24T13:39:50.650Z,54.80
2022-11-24T13:45:31.157Z,54.70
2022-11-24T13:50:51.745Z,54.03
2022-11-24T13:56:08.360Z,53.99
2022-11-24T14:01:13.106Z,54.33
2022-11-24T14:06:39.817Z,53.79
2022-11-24T14:11:44.411Z,54.38
2022-11-24T14:17:17.009Z,52.58
2022-11-24T14:22:27.754Z,53.22
2022-11-24T14:27:34.215Z,54.21
2022-11-24T14:37:53.992Z,54.97
2022-11-24T14:42:57.634Z,54.72
2022-11-24T14:48:16.459Z,55.45
2022-11-24T14:53:26.160Z,55.88
2022-11-24T14:58:40.519Z,56.39
2022-11-24T15:03:47.426Z,56.76
2022-11-24T15:08:50.237Z,57.06
2022-11-24T15:13:57.227Z,56.89
2022-11-24T15:19:01.944Z,57.11
2022-11-24T15:24:25.537Z,57.39
2022-11-24T15:29:27.336Z,57.88
2022-11-24T15:34:29.062Z,58.08
2022-11-24T15:39:32.781Z,58.67
2022-11-24T15:44:37.059Z,59.03
2022-11-24T15:49:38.963Z,59.02
2022-11-24T15:54:40.700Z,59.20
2022-11-24T15:59:42.331Z,59.50
2022-11-24T16:04:43.980Z,59.93
2022-11-24T16:09:45.635Z,59.90
2022-11-24T16:14:47.252Z,60.65
2022-11-24T16:19:59.805Z,60.63
2022-11-24T16:25:04.136Z,61.07
2022-11-24T16:30:08.321Z,61.17
2022-11-24T16:35:10.076Z,61.24
2022-11-24T16:40:12.038Z,61.42
2022-11-24T16:45:13.822Z,61.58
2022-11-24T16:50:15.765Z,61.86
2022-11-24T16:55:17.530Z,62.22
2022-11-24T17:00:19.304Z,62.85
2022-11-24T17:05:20.925Z,62.85
2022-11-24T17:10:22.553Z,63.43
2022-11-24T17:15:33.656Z,63.79
2022-11-24T17:20:37.327Z,64.40
2022-11-24T17:25:39.013Z,64.51
2022-11-24T17:30:41.127Z,64.40
2022-11-24T17:35:44.943Z,64.31
2022-11-24T17:40:50.687Z,65.08
2022-11-24T17:45:57.246Z,65.21
2022-11-24T17:51:08.362Z,65.95
2022-11-24T17:56:16.584Z,65.66
2022-11-24T18:01:19.396Z,65.72
2022-11-24T18:06:25.115Z,66.28
2022-11-24T18:11:32.289Z,66.08
2022-11-24T18:16:34.925Z,66.06
2022-11-24T18:21:38.245Z,65.98
2022-11-24T18:26:41.894Z,66.06
2022-11-24T18:31:44.277Z,65.72
2022-11-24T18:36:52.170Z,66.09
2022-11-24T18:41:54.248Z,66.37
2022-11-24T18:46:58.097Z,66.21
2022-11-24T18:51:59.779Z,66.10
2022-11-24T18:57:03.502Z,66.16
2022-11-24T19:02:05.551Z,66.14
2022-11-24T19:07:07.272Z,65.80
2022-11-24T19:12:10.397Z,65.88
2022-11-24T19:17:12.282Z,65.62
2022-11-24T19:22:15.789Z,66.37
2022-11-24T19:27:20.845Z,66.95
2022-11-24T19:32:24.569Z,66.52
2022-11-24T19:37:31.225Z,67.28
2022-11-24T19:42:33.934Z,66.88
2022-11-24T19:47:35.645Z,66.93
2022-11-24T19:52:37.705Z,67.12
2022-11-24T19:57:39.412Z,67.04
2022-11-24T20:02:41.200Z,67.20
2022-11-24T20:07:42.888Z,67.39
2022-11-24T20:12:44.551Z,67.20
2022-11-24T20:17:46.649Z,67.18
2022-11-24T20:22:48.616Z,67.11
2022-11-24T20:27:52.012Z,67.34
2022-11-24T20:32:53.714Z,67.23
2022-11-24T20:37:55.428Z,66.82
2022-11-24T20:42:57.041Z,67.33
2022-11-24T20:47:58.720Z,67.26
2022-11-24T20:53:00.341Z,67.34
2022-11-24T20:58:02.025Z,67.10
2022-11-24T21:03:03.659Z,67.26
2022-11-24T21:08:05.325Z,67.53
2022-11-24T21:13:06.940Z,67.66
2022-11-24T21:18:08.552Z,67.59
2022-11-24T21:23:10.234Z,67.31
2022-11-24T21:28:13.035Z,67.66
2022-11-24T21:33:14.709Z,67.98
2022-11-24T21:38:16.374Z,68.32
2022-11-24T21:43:18.089Z,68.46
2022-11-24T21:48:19.725Z,68.16
2022-11-24T21:53:21.384Z,67.87
2022-11-24T21:58:23.642Z,68.01
2022-11-24T22:03:25.604Z,67.86
2022-11-24T22:08:29.279Z,68.30
2022-11-24T22:13:31.406Z,67.85
2022-11-24T22:18:35.387Z,67.95
2022-11-24T22:23:37.343Z,68.15
2022-11-24T22:28:39.564Z,68.09
2022-11-24T22:33:41.439Z,68.04
2022-11-24T22:38:43.609Z,68.37
2022-11-24T22:43:46.345Z,68.40
2022-11-24T22:48:49.429Z,68.25
2022-11-24T22:54:13.722Z,67.92
2022-11-24T22:59:15.360Z,68.08
2022-11-24T23:04:17.011Z,68.25
2022-11-24T23:09:18.649Z,68.25
2022-11-24T23:14:20.376Z,68.46
2022-11-24T23:19:22.172Z,68.34
2022-11-24T23:24:30.272Z,68.34
2022-11-24T23:29:31.921Z,68.31
2022-11-24T23:34:33.833Z,67.90
2022-11-24T23:39:35.691Z,67.84
2022-11-24T23:44:37.495Z,68.01
2022-11-24T23:49:39.170Z,67.77
2022-11-24T23:54:40.795Z,67.98
2022-11-24T23:59:42.536Z,68.12
